createdAt,value
2023-02-07T00:01:31.598Z,45.0
2023-02-07T00:04:02.380Z,45.0
2023-02-07T00:06:33.168Z,45.0
2023-02-07T00:09:13.805Z,45.0
2023-02-07T00:11:44.427Z,45.0
2023-02-07T00:14:15.061Z,45.0
2023-02-07T00:16:45.887Z,45.0
2023-02-07T00:19:16.597Z,45.0
2023-02-07T00:21:47.226Z,45.0
2023-02-07T00:24:27.848Z,46.0
2023-02-07T00:29:28.477Z,46.0
2023-02-07T00:31:59.164Z,46.0
2023-02-07T00:34:29.774Z,46.0
2023-02-07T00:37:00.399Z,46.0
2023-02-07T00:39:40.997Z,46.0
2023-02-07T00:42:11.623Z,46.0
2023-02-07T00:44:42.241Z,46.0
2023-02-07T00:47:12.936Z,46.0
2023-02-07T00:49:43.543Z,46.0
2023-02-07T00:52:14.142Z,46.0
2023-02-07T00:54:54.762Z,46.0
2023-02-07T00:57:25.378Z,46.0
2023-02-07T00:59:56.002Z,46.0
2023-02-07T01:02:26.722Z,46.0
2023-02-07T01:04:57.425Z,47.0
2023-02-07T01:10:18.098Z,47.0
2023-02-07T01:12:48.733Z,47.0
2023-02-07T01:15:19.402Z,47.0
2023-02-07T01:17:50.124Z,47.0
2023-02-07T01:20:20.752Z,47.0
2023-02-07T01:23:01.392Z,47.0
2023-02-07T01:25:32.025Z,47.0
2023-02-07T01:28:02.737Z,48.0
2023-02-07T01:30:33.523Z,48.0
2023-02-07T01:33:04.276Z,48.0
2023-02-07T01:35:35.056Z,48.0
2023-02-07T01:38:15.703Z,48.0
2023-02-07T01:40:46.321Z,48.0
2023-02-07T01:43:16.930Z,49.0
2023-02-07T01:45:48.042Z,49.0
2023-02-07T01:50:48.797Z,49.0
2023-02-07T01:53:29.426Z,49.0
2023-02-07T01:56:00.093Z,49.0
2023-02-07T01:58:27.979Z,50.0
2023-02-07T02:00:58.644Z,50.0
2023-02-07T02:03:29.279Z,50.0
2023-02-07T02:06:09.905Z,50.0
2023-02-07T02:08:40.522Z,50.0
2023-02-07T02:11:11.148Z,50.0
2023-02-07T02:13:41.781Z,50.0
2023-02-07T02:16:12.612Z,50.0
2023-02-07T02:18:43.294Z,50.0
2023-02-07T02:21:23.912Z,50.0
2023-02-07T02:23:54.522Z,50.0
2023-02-07T02:26:25.143Z,50.0
2023-02-07T02:31:25.847Z,50.0
2023-02-07T02:33:56.615Z,50.0
2023-02-07T02:36:37.234Z,50.0
2023-02-07T02:39:07.846Z,50.0
2023-02-07T02:41:38.478Z,50.0
2023-02-07T02:44:09.107Z,49.0
2023-02-07T02:46:39.913Z,49.0
2023-02-07T02:49:10.516Z,49.0
2023-02-07T02:51:51.135Z,49.0
2023-02-07T02:54:21.755Z,49.0
2023-02-07T02:56:52.402Z,49.0
2023-02-07T02:59:23.013Z,49.0
2023-02-07T03:01:53.799Z,49.0
2023-02-07T03:04:24.477Z,49.0
2023-02-07T03:07:05.113Z,49.0
2023-02-07T03:12:15.736Z,49.0
2023-02-07T03:14:46.347Z,50.0
2023-02-07T03:17:17.031Z,50.0
2023-02-07T03:19:57.680Z,51.0
2023-02-07T03:22:28.314Z,51.0
2023-02-07T03:24:58.952Z,51.0
2023-02-07T03:27:29.568Z,50.0
2023-02-07T03:30:00.179Z,51.0
2023-02-07T03:32:30.827Z,51.0
2023-02-07T03:35:11.475Z,52.0
2023-02-07T03:37:42.095Z,52.0
2023-02-07T03:40:12.747Z,51.0
2023-02-07T03:42:43.377Z,51.0
2023-02-07T03:45:14.050Z,52.0
2023-02-07T03:47:44.679Z,52.0
2023-02-07T03:52:55.291Z,52.0
2023-02-07T03:55:25.925Z,51.0
2023-02-07T03:57:56.700Z,52.0
2023-02-07T04:00:27.325Z,52.0
2023-02-07T04:02:57.922Z,52.0
2023-02-07T04:05:39.034Z,52.0
2023-02-07T04:08:09.860Z,52.0
2023-02-07T04:10:40.546Z,52.0
2023-02-07T04:13:11.358Z,52.0
2023-02-07T04:15:42.228Z,52.0
2023-02-07T04:18:12.846Z,52.0
2023-02-07T04:20:53.466Z,52.0
2023-02-07T04:23:24.116Z,52.0
2023-02-07T04:25:54.725Z,52.0
2023-02-07T04:28:25.375Z,52.0
2023-02-07T04:33:26.021Z,51.0
2023-02-07T04:36:06.669Z,51.0
2023-02-07T04:38:37.270Z,51.0
2023-02-07T04:41:07.896Z,51.0
2023-02-07T04:43:38.500Z,51.0
2023-02-07T04:46:09.239Z,51.0
2023-02-07T04:48:49.890Z,51.0
2023-02-07T04:51:20.513Z,51.0
2023-02-07T04:53:51.175Z,51.0
2023-02-07T04:56:21.790Z,50.0
2023-02-07T04:58:52.467Z,51.0
2023-02-07T05:01:23.233Z,51.0
2023-02-07T05:04:03.875Z,50.0
2023-02-07T05:06:34.645Z,50.0
2023-02-07T05:09:05.267Z,50.0
2023-02-07T05:14:05.895Z,49.0
2023-02-07T05:16:36.617Z,49.0
2023-02-07T05:19:17.397Z,50.0
2023-02-07T05:21:48.031Z,50.0
2023-02-07T05:24:18.655Z,50.0
2023-02-07T05:26:50.683Z,51.0
2023-02-07T05:29:21.296Z,51.0
2023-02-07T05:31:52.084Z,51.0
2023-02-07T05:34:32.762Z,51.0
2023-02-07T05:37:03.385Z,51.0
2023-02-07T05:39:33.996Z,51.0
2023-02-07T05:42:04.594Z,51.0
2023-02-07T05:44:35.207Z,51.0
2023-02-07T05:47:15.813Z,50.0
2023-02-07T05:49:46.418Z,51.0
2023-02-07T05:54:47.036Z,50.0
2023-02-07T05:57:17.650Z,51.0
2023-02-07T06:02:38.400Z,51.0
2023-02-07T06:05:09.073Z,51.0
2023-02-07T06:07:39.690Z,51.0
2023-02-07T06:10:10.422Z,52.0
2023-02-07T06:12:41.045Z,52.0
2023-02-07T06:15:11.680Z,52.0
2023-02-07T06:17:52.286Z,52.0
2023-02-07T06:20:22.956Z,51.0
2023-02-07T06:22:53.585Z,51.0
2023-02-07T06:25:24.233Z,51.0
2023-02-07T06:27:54.874Z,51.0
2023-02-07T06:30:25.603Z,51.0
2023-02-07T06:35:36.462Z,50.0
2023-02-07T06:38:07.196Z,50.0
2023-02-07T06:40:37.826Z,50.0
2023-02-07T06:43:09.019Z,50.0
2023-02-07T06:45:39.937Z,50.0
2023-02-07T06:48:20.684Z,50.0
2023-02-07T06:50:51.287Z,51.0
2023-02-07T06:53:21.953Z,52.0
2023-02-07T06:55:52.582Z,51.0
2023-02-07T06:58:23.241Z,52.0
2023-02-07T07:01:03.949Z,52.0
2023-02-07T07:03:34.558Z,52.0
2023-02-07T07:06:05.193Z,52.0
2023-02-07T07:08:35.860Z,52.0
2023-02-07T07:11:06.474Z,52.0
2023-02-07T07:16:17.317Z,50.0
2023-02-07T07:18:47.994Z,51.0
2023-02-07T07:21:18.665Z,50.0
2023-02-07T07:23:49.305Z,50.0
2023-02-07T07:26:19.932Z,50.0
2023-02-07T07:28:47.060Z,50.0
2023-02-07T07:31:27.870Z,50.0
2023-02-07T07:33:58.591Z,50.0
2023-02-07T07:36:29.217Z,50.0
2023-02-07T07:39:01.475Z,50.0
2023-02-07T07:41:32.107Z,50.0
2023-02-07T07:44:02.748Z,50.0
2023-02-07T07:46:43.404Z,50.0
2023-02-07T07:49:14.128Z,50.0
2023-02-07T07:51:44.736Z,50.0
2023-02-07T07:56:45.354Z,50.0
2023-02-07T07:59:34.126Z,50.0
2023-02-07T08:02:04.745Z,50.0
2023-02-07T08:04:35.356Z,50.0
2023-02-07T08:07:05.997Z,50.0
2023-02-07T08:09:36.660Z,50.0
2023-02-07T08:12:07.376Z,51.0
2023-02-07T08:14:47.991Z,51.0
2023-02-07T08:17:18.737Z,51.0
2023-02-07T08:19:49.352Z,51.0
2023-02-07T08:22:20.030Z,51.0
2023-02-07T08:24:50.643Z,51.0
2023-02-07T08:27:21.317Z,52.0
2023-02-07T08:30:01.977Z,52.0
2023-02-07T08:32:32.597Z,52.0
2023-02-07T08:37:33.214Z,53.0
2023-02-07T08:40:03.834Z,53.0
2023-02-07T08:42:34.462Z,53.0
2023-02-07T08:45:15.247Z,53.0
2023-02-07T08:47:45.974Z,53.0
2023-02-07T08:50:16.616Z,54.0
2023-02-07T08:52:47.237Z,54.0
2023-02-07T08:55:17.901Z,54.0
2023-02-07T08:57:58.529Z,54.0
2023-02-07T09:00:29.213Z,55.0
2023-02-07T09:03:00.213Z,55.0
2023-02-07T09:05:30.847Z,55.0
2023-02-07T09:08:01.512Z,56.0
2023-02-07T09:10:32.152Z,56.0
2023-02-07T09:13:13.480Z,57.0
2023-02-07T09:18:14.112Z,57.0
2023-02-07T09:20:44.726Z,57.0
2023-02-07T09:23:15.345Z,58.0
2023-02-07T09:25:45.980Z,58.0
2023-02-07T09:28:26.645Z,58.0
2023-02-07T09:30:57.820Z,58.0
2023-02-07T09:33:28.564Z,59.0
2023-02-07T09:35:59.206Z,59.0
2023-02-07T09:38:29.820Z,59.0
2023-02-07T09:41:00.571Z,60.0
2023-02-07T09:43:47.921Z,60.0
2023-02-07T09:46:10.099Z,60.0
2023-02-07T09:48:40.942Z,60.0
2023-02-07T09:51:11.604Z,60.0
2023-02-07T09:53:42.205Z,60.0
2023-02-07T09:58:52.908Z,60.0
2023-02-07T10:01:23.635Z,60.0
2023-02-07T10:03:54.361Z,60.0
2023-02-07T10:06:29.438Z,60.0
2023-02-07T10:09:00.115Z,61.0
2023-02-07T10:11:40.948Z,61.0
2023-02-07T10:14:11.676Z,61.0
2023-02-07T10:16:42.308Z,62.0
2023-02-07T10:19:12.915Z,62.0
2023-02-07T10:21:43.555Z,62.0
2023-02-07T10:24:14.194Z,62.0
2023-02-07T10:26:54.870Z,62.0
2023-02-07T10:29:25.509Z,62.0
2023-02-07T10:31:56.214Z,62.0
2023-02-07T10:34:26.954Z,62.0
2023-02-07T10:39:27.669Z,62.0
2023-02-07T10:42:08.301Z,62.0
2023-02-07T10:44:38.931Z,62.0
2023-02-07T10:47:09.539Z,63.0
2023-02-07T10:49:40.216Z,62.0
2023-02-07T10:52:10.846Z,62.0
2023-02-07T10:54:51.456Z,62.0
2023-02-07T10:57:22.110Z,62.0
2023-02-07T10:59:52.730Z,62.0
2023-02-07T11:02:23.393Z,62.0
2023-02-07T11:04:54.294Z,62.0
2023-02-07T11:07:24.933Z,62.0
2023-02-07T11:10:07.594Z,62.0
2023-02-07T11:12:38.351Z,62.0
2023-02-07T11:15:08.979Z,62.0
2023-02-07T11:20:09.623Z,61.0
2023-02-07T11:22:40.274Z,61.0
2023-02-07T11:25:20.911Z,61.0
2023-02-07T11:27:51.525Z,61.0
2023-02-07T11:30:22.258Z,61.0
2023-02-07T11:32:52.974Z,61.0
2023-02-07T11:35:23.602Z,61.0
2023-02-07T11:37:54.230Z,61.0
2023-02-07T11:40:35.375Z,60.0
2023-02-07T11:43:05.999Z,60.0
2023-02-07T11:45:36.968Z,60.0
2023-02-07T11:48:07.766Z,60.0
2023-02-07T11:50:40.454Z,60.0
2023-02-07T11:53:11.174Z,60.0
2023-02-07T11:55:52.143Z,60.0
2023-02-07T12:00:52.817Z,59.0
2023-02-07T12:03:23.433Z,58.0
2023-02-07T12:05:54.071Z,58.0
2023-02-07T12:08:34.693Z,59.0
2023-02-07T12:11:05.377Z,59.0
2023-02-07T12:13:35.998Z,58.0
2023-02-07T12:16:06.769Z,59.0
2023-02-07T12:18:37.468Z,59.0
2023-02-07T12:21:08.103Z,58.0
2023-02-07T12:23:53.262Z,58.0
2023-02-07T12:26:23.968Z,58.0
2023-02-07T12:29:01.339Z,58.0
2023-02-07T12:31:24.925Z,58.0
2023-02-07T12:33:55.850Z,58.0
2023-02-07T12:36:26.480Z,57.0
2023-02-07T12:41:37.146Z,55.0
2023-02-07T12:44:07.763Z,55.0
2023-02-07T12:46:38.403Z,56.0
2023-02-07T12:49:09.033Z,56.0
2023-02-07T12:51:39.652Z,56.0
2023-02-07T12:54:20.289Z,55.0
2023-02-07T12:56:50.924Z,54.0
2023-02-07T12:59:21.732Z,54.0
2023-02-07T13:01:52.525Z,54.0
2023-02-07T13:04:23.228Z,54.0
2023-02-07T13:07:03.858Z,55.0
2023-02-07T13:09:34.583Z,54.0
2023-02-07T13:12:05.223Z,53.0
2023-02-07T13:14:35.852Z,54.0
2023-02-07T13:17:06.492Z,53.0
2023-02-07T13:22:17.144Z,54.0
2023-02-07T13:24:47.931Z,54.0
2023-02-07T13:27:18.659Z,54.0
2023-02-07T13:29:49.374Z,54.0
2023-02-07T13:32:20.064Z,54.0
2023-02-07T13:34:50.789Z,54.0
2023-02-07T13:37:31.420Z,54.0
2023-02-07T13:40:02.084Z,53.0
2023-02-07T13:42:32.753Z,53.0
2023-02-07T13:45:03.380Z,54.0
2023-02-07T13:47:34.025Z,52.0
2023-02-07T13:50:04.652Z,52.0
2023-02-07T13:52:45.283Z,51.0
2023-02-07T13:55:15.916Z,51.0
2023-02-07T13:57:46.547Z,50.0
2023-02-07T14:02:47.242Z,51.0
2023-02-07T14:05:27.905Z,50.0
2023-02-07T14:07:58.818Z,50.0
2023-02-07T14:10:29.464Z,50.0
2023-02-07T14:13:00.162Z,50.0
2023-02-07T14:15:30.842Z,50.0
2023-02-07T14:18:01.854Z,48.0
2023-02-07T14:20:42.491Z,48.0
2023-02-07T14:23:13.330Z,48.0
2023-02-07T14:25:44.038Z,48.0
2023-02-07T14:28:14.812Z,48.0
2023-02-07T14:30:45.630Z,47.0
2023-02-07T14:33:16.499Z,46.0
2023-02-07T14:35:57.139Z,47.0
2023-02-07T14:38:27.776Z,46.0
2023-02-07T14:43:28.399Z,47.0
2023-02-07T14:45:59.128Z,47.0
2023-02-07T14:48:29.826Z,47.0
2023-02-07T14:51:10.650Z,46.0
2023-02-07T14:53:41.281Z,45.0
2023-02-07T14:56:11.959Z,45.0
2023-02-07T14:58:42.576Z,45.0
2023-02-07T15:01:13.427Z,45.0
2023-02-07T15:03:45.287Z,45.0
2023-02-07T15:06:32.750Z,44.0
2023-02-07T15:09:03.487Z,44.0
2023-02-07T15:11:34.196Z,44.0
2023-02-07T15:13:58.153Z,45.0
2023-02-07T15:16:28.911Z,45.0
2023-02-07T15:19:09.548Z,44.0
2023-02-07T15:24:10.195Z,44.0
2023-02-07T15:26:40.823Z,44.0
2023-02-07T15:29:11.541Z,44.0
2023-02-07T15:31:42.604Z,44.0
2023-02-07T15:34:23.470Z,43.0
2023-02-07T15:36:54.120Z,43.0
2023-02-07T15:39:24.745Z,42.0
2023-02-07T15:41:55.367Z,42.0
2023-02-07T15:44:25.962Z,43.0
2023-02-07T15:46:56.773Z,44.0
2023-02-07T15:49:37.710Z,44.0
2023-02-07T15:52:08.373Z,45.0
2023-02-07T15:54:38.994Z,45.0
2023-02-07T15:57:09.641Z,45.0
2023-02-07T15:59:40.263Z,46.0
2023-02-07T16:04:52.592Z,46.0
2023-02-07T16:07:23.312Z,46.0
2023-02-07T16:09:54.000Z,46.0
2023-02-07T16:12:24.649Z,46.0
2023-02-07T16:14:55.273Z,46.0
2023-02-07T16:17:35.954Z,46.0
2023-02-07T16:20:06.730Z,46.0
2023-02-07T16:22:37.370Z,46.0
2023-02-07T16:25:08.008Z,47.0
2023-02-07T16:27:39.498Z,47.0
2023-02-07T16:30:10.197Z,47.0
2023-02-07T16:32:50.806Z,48.0
2023-02-07T16:35:21.440Z,49.0
2023-02-07T16:37:52.047Z,51.0
2023-02-07T16:40:22.702Z,52.0
2023-02-07T16:45:33.413Z,55.0
2023-02-07T16:48:14.161Z,56.0
2023-02-07T16:50:44.778Z,56.0
2023-02-07T16:53:15.379Z,56.0
2023-02-07T16:55:45.986Z,57.0
2023-02-07T16:58:16.604Z,57.0
2023-02-07T17:00:57.366Z,58.0
2023-02-07T17:03:28.068Z,59.0
2023-02-07T17:05:58.710Z,59.0
2023-02-07T17:08:29.315Z,60.0
2023-02-07T17:10:59.946Z,61.0
2023-02-07T17:13:30.568Z,61.0
2023-02-07T17:16:11.214Z,61.0
2023-02-07T17:18:41.901Z,62.0
2023-02-07T17:21:12.578Z,62.0
2023-02-07T17:26:13.206Z,62.0
2023-02-07T17:28:44.009Z,63.0
2023-02-07T17:31:24.874Z,63.0
2023-02-07T17:33:55.549Z,63.0
2023-02-07T17:36:26.181Z,63.0
2023-02-07T17:38:56.772Z,63.0
2023-02-07T17:41:27.408Z,63.0
2023-02-07T17:43:58.054Z,63.0
2023-02-07T17:46:38.665Z,63.0
2023-02-07T17:49:09.306Z,63.0
2023-02-07T17:51:39.973Z,63.0
2023-02-07T17:54:10.591Z,63.0
2023-02-07T17:56:41.209Z,63.0
2023-02-07T17:59:21.846Z,63.0
2023-02-07T18:01:52.484Z,63.0
2023-02-07T18:06:53.167Z,63.0
2023-02-07T18:09:23.770Z,63.0
2023-02-07T18:11:54.384Z,63.0
2023-02-07T18:14:35.014Z,63.0
2023-02-07T18:17:05.662Z,64.0
2023-02-07T18:19:36.468Z,63.0
2023-02-07T18:22:07.098Z,63.0
2023-02-07T18:24:37.720Z,63.0
2023-02-07T18:27:08.335Z,63.0
2023-02-07T18:29:48.972Z,63.0
2023-02-07T18:32:19.652Z,63.0
2023-02-07T18:34:50.283Z,63.0
2023-02-07T18:37:20.938Z,63.0
2023-02-07T18:39:51.539Z,63.0
2023-02-07T18:42:22.244Z,63.0
2023-02-07T18:47:32.903Z,63.0
2023-02-07T18:50:03.661Z,63.0
2023-02-07T18:52:34.291Z,63.0
2023-02-07T18:55:04.906Z,63.0
2023-02-07T18:57:45.563Z,62.0
2023-02-07T19:00:16.215Z,62.0
2023-02-07T19:02:46.989Z,62.0
2023-02-07T19:05:17.669Z,62.0
2023-02-07T19:07:48.304Z,62.0
2023-02-07T19:10:18.954Z,62.0
2023-02-07T19:12:59.584Z,62.0
2023-02-07T19:15:30.274Z,61.0
2023-02-07T19:18:00.990Z,61.0
2023-02-07T19:20:31.608Z,61.0
2023-02-07T19:23:02.545Z,61.0
2023-02-07T19:28:13.358Z,61.0
2023-02-07T19:30:44.266Z,61.0
2023-02-07T19:33:14.991Z,61.0
2023-02-07T19:35:45.617Z,61.0
2023-02-07T19:38:16.268Z,61.0
2023-02-07T19:40:46.922Z,60.0
2023-02-07T19:43:27.572Z,60.0
2023-02-07T19:45:58.214Z,60.0
2023-02-07T19:48:28.881Z,60.0
2023-02-07T19:51:09.492Z,59.0
2023-02-07T19:53:40.108Z,59.0
2023-02-07T19:56:20.740Z,59.0
2023-02-07T19:58:51.394Z,58.0
2023-02-07T20:01:22.050Z,58.0
2023-02-07T20:03:52.763Z,59.0
2023-02-07T20:08:53.508Z,59.0
2023-02-07T20:11:34.197Z,59.0
2023-02-07T20:14:04.847Z,59.0
2023-02-07T20:16:35.651Z,59.0
2023-02-07T20:19:06.278Z,60.0
2023-02-07T20:21:36.984Z,60.0
2023-02-07T20:24:07.639Z,60.0
2023-02-07T20:26:48.279Z,60.0
2023-02-07T20:29:18.918Z,60.0
2023-02-07T20:31:49.701Z,60.0
2023-02-07T20:34:20.385Z,60.0
2023-02-07T20:36:51.165Z,60.0
2023-02-07T20:39:22.023Z,60.0
2023-02-07T20:42:02.716Z,60.0
2023-02-07T20:44:33.369Z,60.0
2023-02-07T20:49:36.413Z,59.0
2023-02-07T20:52:07.086Z,59.0
2023-02-07T20:54:37.724Z,59.0
2023-02-07T20:57:18.359Z,58.0
2023-02-07T20:59:48.979Z,58.0
2023-02-07T21:02:19.685Z,58.0
2023-02-07T21:04:50.373Z,58.0
2023-02-07T21:07:21.098Z,59.0
2023-02-07T21:10:01.971Z,58.0
2023-02-07T21:12:32.757Z,59.0
2023-02-07T21:15:03.380Z,58.0
2023-02-07T21:17:34.020Z,58.0
2023-02-07T21:20:04.669Z,58.0
2023-02-07T21:22:35.300Z,58.0
2023-02-07T21:25:15.918Z,58.0
2023-02-07T21:30:16.566Z,58.0
2023-02-07T21:32:47.308Z,57.0
2023-02-07T21:35:17.925Z,57.0
2023-02-07T21:37:48.593Z,57.0
2023-02-07T21:40:29.227Z,57.0
2023-02-07T21:43:00.145Z,57.0
2023-02-07T21:45:30.775Z,57.0
2023-02-07T21:48:01.445Z,57.0
2023-02-07T21:50:32.075Z,57.0
2023-02-07T21:55:42.697Z,58.0
2023-02-07T21:58:13.322Z,58.0
2023-02-07T22:00:43.977Z,58.0
2023-02-07T22:03:14.658Z,58.0
2023-02-07T22:05:45.326Z,58.0
2023-02-07T22:10:55.957Z,59.0
2023-02-07T22:13:26.637Z,59.0
2023-02-07T22:15:57.281Z,59.0
2023-02-07T22:18:27.919Z,58.0
2023-02-07T22:20:58.545Z,58.0
2023-02-07T22:23:39.160Z,58.0
2023-02-07T22:26:09.816Z,58.0
2023-02-07T22:28:40.441Z,58.0
2023-02-07T22:31:11.337Z,58.0
2023-02-07T22:33:42.075Z,58.0
2023-02-07T22:36:12.681Z,58.0
2023-02-07T22:38:53.278Z,58.0
2023-02-07T22:41:23.900Z,57.0
2023-02-07T22:43:54.512Z,57.0
2023-02-07T22:46:25.263Z,57.0
2023-02-07T22:51:25.916Z,58.0
2023-02-07T22:56:46.608Z,59.0
2023-02-07T22:59:17.266Z,59.0
2023-02-07T23:01:47.880Z,59.0
2023-02-07T23:04:18.530Z,59.0
2023-02-07T23:06:49.177Z,59.0
2023-02-07T23:09:29.808Z,59.0
2023-02-07T23:12:00.477Z,59.0
2023-02-07T23:14:31.077Z,59.0
2023-02-07T23:17:01.690Z,60.0
2023-02-07T23:19:32.289Z,60.0
2023-02-07T23:22:02.926Z,60.0
2023-02-07T23:24:43.532Z,60.0
2023-02-07T23:27:14.160Z,60.0
2023-02-07T23:32:14.782Z,60.0
2023-02-07T23:34:45.380Z,60.0
2023-02-07T23:37:26.019Z,60.0
2023-02-07T23:39:56.660Z,60.0
2023-02-07T23:44:57.276Z,60.0
2023-02-07T23:47:27.910Z,60.0
2023-02-07T23:49:58.547Z,61.0
2023-02-07T23:52:39.164Z,61.0
2023-02-07T23:55:09.804Z,61.0
2023-02-07T23:57:40.429Z,61.0
